Time;durP1;ratioP1;P1;durP2;ratioP2;P2;SDS_P1;SDS_P2;PMS_P1;PMS_P2;Temp;Humidity;BMP_temperature;BMP_pressure;BME280_temperature;BME280_humidity;BME280_pressure;Samples;Min_cycle;Max_cycle;Signal;HPM_P1;HPM_P2
2021/09/29 00:01:14;;;;;;;1.50;1.10;;;13.10;98.20;;;;;;5038752;28;20483;-77
2021/09/29 00:03:41;;;;;;;1.50;1.10;;;13.10;98.20;;;;;;5032383;28;20467;-77
2021/09/29 00:06:07;;;;;;;1.50;1.10;;;13.10;98.20;;;;;;5035776;28;20498;-77
2021/09/29 00:08:34;;;;;;;1.50;1.10;;;13.10;98.20;;;;;;5037445;28;20965;-76
2021/09/29 00:11:01;;;;;;;1.50;1.10;;;13.10;98.20;;;;;;5037413;28;21001;-76
2021/09/29 00:13:28;;;;;;;1.50;1.10;;;13.00;98.20;;;;;;5034387;28;20954;-77
2021/09/29 00:15:57;;;;;;;1.57;1.20;;;13.00;98.20;;;;;;5034818;28;20455;-76
2021/09/29 00:18:24;;;;;;;1.60;1.10;;;13.10;98.20;;;;;;5035890;28;20473;-76
2021/09/29 00:20:51;;;;;;;1.50;1.10;;;13.00;98.20;;;;;;5036302;28;20471;-77
2021/09/29 00:23:18;;;;;;;1.50;1.10;;;13.00;98.20;;;;;;5037163;28;20491;-76
2021/09/29 00:25:45;;;;;;;1.50;1.00;;;13.00;98.20;;;;;;5038873;28;20459;-78
2021/09/29 00:28:12;;;;;;;1.50;1.10;;;13.00;98.20;;;;;;5038531;28;20460;-76
2021/09/29 00:30:49;;;;;;;1.53;1.07;;;13.00;98.20;;;;;;5039349;28;20464;-76
2021/09/29 00:33:18;;;;;;;1.50;1.00;;;13.00;98.20;;;;;;5038822;28;20459;-75
2021/09/29 00:35:45;;;;;;;1.53;1.10;;;13.00;98.20;;;;;;5042328;28;20470;-76
2021/09/29 00:38:12;;;;;;;1.50;1.10;;;13.00;98.20;;;;;;5041550;28;20964;-75
2021/09/29 00:40:39;;;;;;;1.57;1.13;;;12.90;98.20;;;;;;5041640;28;20474;-76
2021/09/29 00:43:06;;;;;;;1.50;1.07;;;12.90;98.20;;;;;;5041763;28;20487;-76
2021/09/29 00:45:32;;;;;;;1.53;1.10;;;12.90;98.20;;;;;;5037972;28;20591;-76
2021/09/29 00:48:00;;;;;;;1.50;1.10;;;12.90;98.20;;;;;;5035750;28;20490;-75
2021/09/29 00:50:28;;;;;;;1.53;1.00;;;12.90;98.20;;;;;;5033536;28;20555;-77
2021/09/29 00:52:58;;;;;;;1.53;1.10;;;12.90;98.20;;;;;;5034183;28;20529;-76
2021/09/29 00:55:25;;;;;;;1.50;1.10;;;12.90;98.20;;;;;;5035030;28;20467;-75
2021/09/29 00:57:51;;;;;;;1.50;1.10;;;12.90;98.20;;;;;;5028584;28;21117;-77
2021/09/29 01:00:19;;;;;;;1.57;1.10;;;12.80;98.20;;;;;;5032624;28;20463;-77
2021/09/29 01:02:46;;;;;;;1.57;1.10;;;12.80;98.20;;;;;;5034240;28;20487;-77
2021/09/29 01:05:13;;;;;;;1.50;1.00;;;12.80;98.20;;;;;;5036716;28;20997;-76
2021/09/29 01:07:49;;;;;;;1.53;1.10;;;12.80;98.20;;;;;;5044417;28;20490;-76
2021/09/29 01:10:23;;;;;;;1.53;1.10;;;12.70;98.20;;;;;;5033168;28;20466;-77
2021/09/29 01:12:53;;;;;;;1.53;1.10;;;12.70;98.20;;;;;;5034128;28;20810;-76
2021/09/29 01:15:23;;;;;;;1.50;1.00;;;12.70;98.20;;;;;;5031999;28;20467;-75
2021/09/29 01:17:53;;;;;;;1.50;1.03;;;12.70;98.20;;;;;;5025827;28;20978;-76
2021/09/29 01:20:25;;;;;;;1.50;1.07;;;12.70;98.20;;;;;;5032222;28;20479;-77
2021/09/29 01:23:10;;;;;;;1.53;1.10;;;12.60;98.20;;;;;;5027690;28;20499;-76
2021/09/29 01:25:52;;;;;;;1.50;1.10;;;12.60;98.20;;;;;;5028498;28;20850;-75
2021/09/29 01:28:24;;;;;;;1.53;1.00;;;12.60;98.20;;;;;;5035377;28;20957;-76
2021/09/29 01:30:51;;;;;;;1.50;1.10;;;12.60;98.20;;;;;;5012244;28;20470;-76
2021/09/29 01:33:19;;;;;;;1.50;1.10;;;12.60;98.20;;;;;;5023197;28;20958;-75
2021/09/29 01:35:47;;;;;;;1.53;1.10;;;12.60;98.20;;;;;;5030219;28;21085;-76
2021/09/29 01:38:15;;;;;;;1.50;1.00;;;12.60;98.20;;;;;;5035828;28;20461;-76
2021/09/29 01:40:42;;;;;;;1.60;1.17;;;12.60;98.20;;;;;;5033527;28;20456;-75
2021/09/29 01:43:08;;;;;;;1.50;1.10;;;12.60;98.20;;;;;;5031367;28;20885;-76
2021/09/29 01:45:38;;;;;;;1.57;1.13;;;12.60;98.20;;;;;;5028889;28;20468;-77
2021/09/29 01:48:06;;;;;;;1.60;1.20;;;12.60;98.20;;;;;;5029748;28;20498;-76
2021/09/29 01:50:33;;;;;;;1.50;1.10;;;12.60;98.20;;;;;;5030368;28;21167;-77
2021/09/29 01:53:02;;;;;;;1.60;1.20;;;12.60;98.20;;;;;;5030431;28;20989;-76
2021/09/29 01:55:30;;;;;;;1.50;1.00;;;12.60;98.20;;;;;;5029093;28;20469;-77
2021/09/29 01:57:57;;;;;;;1.57;1.10;;;12.60;98.20;;;;;;5027864;28;20490;-75
2021/09/29 02:00:24;;;;;;;1.50;1.10;;;12.60;98.20;;;;;;5028222;28;20470;-77
2021/09/29 02:02:56;;;;;;;1.53;1.10;;;12.60;98.20;;;;;;5030507;28;20495;-77
2021/09/29 02:05:30;;;;;;;1.50;1.10;;;12.70;98.20;;;;;;5032765;28;20463;-76
2021/09/29 02:07:57;;;;;;;1.53;1.10;;;12.70;98.20;;;;;;5038280;28;21035;-76
2021/09/29 02:10:24;;;;;;;1.50;1.10;;;12.70;98.20;;;;;;5031694;28;20463;-77
2021/09/29 02:12:51;;;;;;;1.50;1.00;;;12.70;98.20;;;;;;5029038;28;20466;-77
2021/09/29 02:15:18;;;;;;;1.50;1.03;;;12.70;98.20;;;;;;5025364;28;20952;-75
2021/09/29 02:17:45;;;;;;;1.50;1.10;;;12.70;98.20;;;;;;5031921;28;20502;-76
2021/09/29 02:20:14;;;;;;;1.53;1.10;;;12.80;98.20;;;;;;5031691;28;20478;-77
2021/09/29 02:22:41;;;;;;;1.50;1.00;;;12.80;98.20;;;;;;5029241;28;20479;-76
2021/09/29 02:25:10;;;;;;;1.60;1.17;;;12.80;98.20;;;;;;5028646;28;21165;-75
2021/09/29 02:27:37;;;;;;;1.57;1.10;;;12.80;98.20;;;;;;5030992;28;20483;-75
2021/09/29 02:30:06;;;;;;;1.50;1.10;;;12.80;98.20;;;;;;5028812;28;20467;-76
2021/09/29 02:32:33;;;;;;;1.53;1.10;;;12.90;98.20;;;;;;5031084;28;20830;-76
2021/09/29 02:35:00;;;;;;;1.50;1.00;;;12.80;98.20;;;;;;5028438;28;20459;-76
2021/09/29 02:37:29;;;;;;;1.53;1.10;;;12.80;98.20;;;;;;5035448;28;20525;-77
2021/09/29 02:39:55;;;;;;;1.50;1.00;;;12.80;98.20;;;;;;5028025;28;20452;-76
2021/09/29 02:42:22;;;;;;;1.53;1.10;;;12.80;98.20;;;;;;5028281;28;20498;-76
2021/09/29 02:44:49;;;;;;;1.73;1.40;;;12.80;98.20;;;;;;5029434;28;20465;-77
2021/09/29 02:47:16;;;;;;;1.53;1.10;;;12.80;98.20;;;;;;5028528;28;20489;-76
2021/09/29 02:49:42;;;;;;;1.50;1.00;;;12.70;98.20;;;;;;5031134;28;20471;-76
2021/09/29 02:52:09;;;;;;;1.53;1.10;;;12.70;98.20;;;;;;5030204;28;20470;-76
2021/09/29 02:54:37;;;;;;;1.50;1.00;;;12.70;98.20;;;;;;5028318;28;20463;-77
2021/09/29 02:57:04;;;;;;;1.50;1.10;;;12.60;98.20;;;;;;5029225;28;20490;-76
2021/09/29 02:59:31;;;;;;;1.50;1.07;;;12.60;98.20;;;;;;5029607;28;20482;-76
2021/09/29 03:01:58;;;;;;;1.50;1.10;;;12.60;98.20;;;;;;5025298;28;20460;-76
2021/09/29 03:04:24;;;;;;;1.50;1.10;;;12.60;98.20;;;;;;5028652;28;20474;-76
2021/09/29 03:06:51;;;;;;;1.57;1.10;;;12.60;98.20;;;;;;5031507;28;20471;-75
2021/09/29 03:09:18;;;;;;;1.50;1.00;;;12.60;98.20;;;;;;5029531;28;20460;-77
2021/09/29 03:11:46;;;;;;;1.50;1.10;;;12.60;98.20;;;;;;5028427;28;20459;-76
2021/09/29 03:14:13;;;;;;;1.50;1.10;;;12.60;98.20;;;;;;5027467;28;20747;-76
2021/09/29 03:16:40;;;;;;;1.50;1.10;;;12.60;98.20;;;;;;5026655;28;20470;-76
2021/09/29 03:19:06;;;;;;;1.53;1.10;;;12.70;98.20;;;;;;5028112;28;20477;-76
2021/09/29 03:21:33;;;;;;;1.50;1.10;;;12.70;98.20;;;;;;5028282;28;20480;-77
2021/09/29 03:24:00;;;;;;;1.60;1.30;;;12.70;98.20;;;;;;5026814;28;20483;-75
2021/09/29 03:26:27;;;;;;;1.53;1.10;;;12.70;98.20;;;;;;5027388;28;20490;-75
2021/09/29 03:28:55;;;;;;;1.50;1.10;;;12.70;98.20;;;;;;5026960;28;20469;-76
2021/09/29 03:31:21;;;;;;;1.50;1.10;;;12.70;98.20;;;;;;5024372;28;20469;-75
2021/09/29 03:33:49;;;;;;;1.50;1.00;;;12.70;98.20;;;;;;5026250;28;20455;-76
2021/09/29 03:36:16;;;;;;;1.50;1.00;;;12.70;98.20;;;;;;5028308;28;20501;-76
2021/09/29 03:38:42;;;;;;;1.50;1.10;;;12.70;98.20;;;;;;5035686;28;20458;-76
2021/09/29 03:41:09;;;;;;;1.83;1.63;;;12.60;98.20;;;;;;5027921;28;20481;-76
2021/09/29 03:43:36;;;;;;;1.50;1.10;;;12.70;98.20;;;;;;5028102;28;20487;-76
2021/09/29 03:46:04;;;;;;;2.00;1.50;;;12.70;98.20;;;;;;5027194;28;20463;-76
2021/09/29 03:48:31;;;;;;;1.50;1.00;;;12.70;98.20;;;;;;5026580;28;20470;-79
2021/09/29 03:50:58;;;;;;;1.50;1.10;;;12.70;98.20;;;;;;5031452;28;20470;-77
2021/09/29 03:53:24;;;;;;;1.53;1.10;;;12.60;98.20;;;;;;5031843;28;20470;-77
2021/09/29 03:55:51;;;;;;;1.60;1.10;;;12.60;98.20;;;;;;5031230;28;20468;-77
2021/09/29 03:58:19;;;;;;;1.57;1.10;;;12.60;98.20;;;;;;5030272;28;21033;-77
2021/09/29 04:00:46;;;;;;;1.50;1.00;;;12.70;98.20;;;;;;5031587;28;20549;-76
2021/09/29 04:03:14;;;;;;;1.50;1.10;;;12.70;98.20;;;;;;5029591;28;21080;-77
2021/09/29 04:05:41;;;;;;;1.53;1.10;;;12.70;98.20;;;;;;5034291;28;20516;-77
2021/09/29 04:08:08;;;;;;;1.60;1.10;;;12.60;98.20;;;;;;5039942;28;20478;-77
2021/09/29 04:10:35;;;;;;;1.57;1.20;;;12.60;98.20;;;;;;5031331;28;20463;-76
2021/09/29 04:13:02;;;;;;;1.50;1.00;;;12.60;98.20;;;;;;5032095;28;20471;-76
2021/09/29 04:15:29;;;;;;;1.50;1.10;;;12.60;98.20;;;;;;5029056;28;20459;-76
2021/09/29 04:17:56;;;;;;;1.53;1.10;;;12.60;98.20;;;;;;5030614;28;20513;-76
2021/09/29 04:20:24;;;;;;;1.50;1.10;;;12.60;98.20;;;;;;5030489;28;20485;-76
2021/09/29 04:22:51;;;;;;;1.53;1.10;;;12.60;98.20;;;;;;5026924;28;20494;-77
2021/09/29 04:25:18;;;;;;;1.53;1.10;;;12.50;98.20;;;;;;5026820;28;20467;-77
2021/09/29 04:27:44;;;;;;;1.53;1.10;;;12.50;98.20;;;;;;5029661;28;20490;-77
2021/09/29 04:30:14;;;;;;;1.53;1.10;;;12.50;98.20;;;;;;5028710;28;20550;-77
2021/09/29 04:32:41;;;;;;;1.50;1.10;;;12.40;98.20;;;;;;5028980;28;21104;-77
2021/09/29 04:35:08;;;;;;;1.50;1.03;;;12.40;98.20;;;;;;5030337;28;20459;-76
2021/09/29 04:37:36;;;;;;;1.50;1.03;;;12.30;98.20;;;;;;5029122;28;20487;-80
2021/09/29 04:40:05;;;;;;;1.50;1.13;;;12.30;98.20;;;;;;5028063;28;20976;-76
2021/09/29 04:42:32;;;;;;;1.50;1.10;;;12.30;98.20;;;;;;5029809;28;20464;-76
2021/09/29 04:44:59;;;;;;;1.57;1.17;;;12.30;98.20;;;;;;5020044;28;20984;-76
2021/09/29 04:47:26;;;;;;;1.53;1.10;;;12.30;98.20;;;;;;5019310;28;20870;-76
2021/09/29 04:49:53;;;;;;;1.50;1.00;;;12.30;98.20;;;;;;5025651;28;20470;-78
2021/09/29 04:52:20;;;;;;;1.50;1.00;;;12.30;98.20;;;;;;5020402;28;20466;-78
2021/09/29 04:54:48;;;;;;;1.57;1.20;;;12.30;98.20;;;;;;5022746;28;20883;-77
2021/09/29 04:57:15;;;;;;;1.50;1.10;;;12.30;98.20;;;;;;5024201;28;20479;-77
2021/09/29 04:59:42;;;;;;;1.60;1.10;;;12.30;98.20;;;;;;5020569;28;20559;-76
2021/09/29 05:02:12;;;;;;;1.50;1.00;;;12.30;98.20;;;;;;5019475;28;20460;-76
2021/09/29 05:04:39;;;;;;;1.50;1.10;;;12.30;98.20;;;;;;5021870;28;20487;-79
2021/09/29 05:07:06;;;;;;;1.53;1.10;;;12.40;98.20;;;;;;5027977;28;20483;-79
2021/09/29 05:09:33;;;;;;;1.60;1.10;;;12.40;98.20;;;;;;5031473;28;20848;-78
2021/09/29 05:12:05;;;;;;;1.53;1.20;;;12.40;98.20;;;;;;5026211;28;20475;-77
2021/09/29 05:14:32;;;;;;;1.50;1.10;;;12.40;98.20;;;;;;5026720;28;20466;-76
2021/09/29 05:16:59;;;;;;;1.50;1.10;;;12.40;98.20;;;;;;5026504;28;20471;-77
2021/09/29 05:19:26;;;;;;;1.57;1.10;;;12.40;98.20;;;;;;5021389;28;20502;-77
2021/09/29 05:21:53;;;;;;;1.50;1.07;;;12.40;98.20;;;;;;5027848;28;20800;-75
2021/09/29 05:24:20;;;;;;;1.57;1.10;;;12.40;98.20;;;;;;5028748;28;20495;-76
2021/09/29 05:26:48;;;;;;;1.50;1.07;;;12.40;98.20;;;;;;5025194;28;21406;-76
2021/09/29 05:29:19;;;;;;;1.50;1.00;;;12.40;98.20;;;;;;5023582;28;20569;-78
2021/09/29 05:31:45;;;;;;;1.50;1.00;;;12.50;98.20;;;;;;5024614;28;20459;-76
2021/09/29 05:34:13;;;;;;;1.50;1.10;;;12.50;98.20;;;;;;5029856;28;20464;-75
2021/09/29 05:36:41;;;;;;;1.50;1.10;;;12.60;98.20;;;;;;5035700;28;20478;-78
2021/09/29 05:39:08;;;;;;;1.53;1.10;;;12.60;98.20;;;;;;5028473;28;20498;-76
2021/09/29 05:41:34;;;;;;;1.53;1.10;;;12.70;98.20;;;;;;5023027;28;20550;-75
2021/09/29 05:44:01;;;;;;;1.50;1.00;;;12.70;98.20;;;;;;5022435;28;20526;-77
2021/09/29 05:46:30;;;;;;;1.53;1.10;;;12.80;98.20;;;;;;5021568;28;20483;-78
2021/09/29 05:48:57;;;;;;;1.60;1.20;;;12.90;98.20;;;;;;5022026;28;20463;-75
2021/09/29 05:51:24;;;;;;;1.60;1.10;;;13.00;98.20;;;;;;5020739;28;20474;-77
2021/09/29 05:53:51;;;;;;;1.53;1.00;;;13.00;98.20;;;;;;5022398;28;20490;-77
2021/09/29 05:56:18;;;;;;;1.53;1.00;;;13.10;98.20;;;;;;5018886;28;20483;-77
2021/09/29 05:58:45;;;;;;;1.53;1.00;;;13.20;98.20;;;;;;5023874;28;21321;-77
2021/09/29 06:01:12;;;;;;;1.50;1.07;;;13.30;98.20;;;;;;5019294;28;20964;-76
2021/09/29 06:03:40;;;;;;;1.50;1.10;;;13.30;98.20;;;;;;5020620;28;21234;-76
2021/09/29 06:06:07;;;;;;;1.53;1.10;;;13.40;98.20;;;;;;5021283;28;20974;-77
2021/09/29 06:08:34;;;;;;;1.50;1.00;;;13.40;98.20;;;;;;5023862;28;20962;-76
2021/09/29 06:11:01;;;;;;;1.50;1.00;;;13.40;98.20;;;;;;5021502;28;20504;-77
2021/09/29 06:13:28;;;;;;;1.57;1.10;;;13.40;98.20;;;;;;5017110;28;21316;-76
2021/09/29 06:15:55;;;;;;;1.50;1.10;;;13.40;98.20;;;;;;5018968;28;20459;-76
2021/09/29 06:18:22;;;;;;;1.50;1.00;;;13.40;98.20;;;;;;5021855;28;20467;-76
2021/09/29 06:20:52;;;;;;;1.53;1.10;;;13.30;98.20;;;;;;5021933;28;20697;-77
2021/09/29 06:23:21;;;;;;;1.53;1.10;;;13.20;98.20;;;;;;5020715;28;20486;-76
2021/09/29 06:25:48;;;;;;;1.53;1.00;;;13.20;98.20;;;;;;5026368;28;20474;-80
2021/09/29 06:28:15;;;;;;;1.50;1.00;;;13.20;98.20;;;;;;5028446;28;20913;-80
2021/09/29 06:30:42;;;;;;;1.57;1.00;;;13.20;98.20;;;;;;5030756;28;20815;-79
2021/09/29 06:33:09;;;;;;;1.50;1.03;;;13.10;98.20;;;;;;5024302;28;20459;-78
2021/09/29 06:35:36;;;;;;;2.90;2.70;;;13.10;98.20;;;;;;5022452;28;20503;-78
2021/09/29 06:38:05;;;;;;;1.50;1.00;;;13.10;98.20;;;;;;5028652;28;20482;-77
2021/09/29 06:40:32;;;;;;;1.50;0.97;;;13.10;98.20;;;;;;5024394;28;20463;-80
2021/09/29 06:43:03;;;;;;;1.50;1.00;;;13.10;98.20;;;;;;5029550;28;20485;-80
2021/09/29 06:45:30;;;;;;;1.53;1.10;;;13.10;98.20;;;;;;5023660;28;20527;-80
2021/09/29 06:47:57;;;;;;;1.50;1.00;;;13.00;98.20;;;;;;5018552;28;21106;-78
2021/09/29 06:50:24;;;;;;;1.60;1.20;;;13.00;98.20;;;;;;5017277;28;20467;-81
2021/09/29 06:52:51;;;;;;;1.50;1.00;;;13.00;98.20;;;;;;5027726;28;20467;-78
2021/09/29 06:55:19;;;;;;;1.60;1.17;;;13.00;98.20;;;;;;5022484;28;20497;-80
2021/09/29 06:57:46;;;;;;;1.50;1.00;;;13.00;98.20;;;;;;5026060;28;20693;-82
2021/09/29 07:00:15;;;;;;;1.53;1.10;;;13.00;98.20;;;;;;5021191;28;20827;-78
2021/09/29 07:02:44;;;;;;;1.50;1.00;;;13.00;98.20;;;;;;5022132;28;20467;-78
2021/09/29 07:05:11;;;;;;;1.70;1.40;;;13.00;98.20;;;;;;5021417;28;20491;-81
2021/09/29 07:07:39;;;;;;;1.57;1.00;;;13.10;98.20;;;;;;5023827;28;20487;-82
2021/09/29 07:10:08;;;;;;;1.60;1.10;;;13.10;98.20;;;;;;5023297;28;20471;-80
2021/09/29 07:12:37;;;;;;;1.50;1.10;;;13.10;98.20;;;;;;5020721;28;20558;-79
2021/09/29 07:15:05;;;;;;;1.50;1.00;;;13.20;98.20;;;;;;5030898;28;20458;-80
2021/09/29 07:17:32;;;;;;;1.50;1.00;;;13.30;98.20;;;;;;5026821;28;20483;-81
2021/09/29 07:20:02;;;;;;;1.50;1.03;;;13.30;98.20;;;;;;5024867;28;20471;-80
2021/09/29 07:22:29;;;;;;;1.50;1.00;;;13.30;98.20;;;;;;5026661;28;21076;-80
2021/09/29 07:24:56;;;;;;;1.50;1.00;;;13.40;98.20;;;;;;5029589;28;20498;-78
2021/09/29 07:27:23;;;;;;;1.50;1.00;;;13.50;98.20;;;;;;5031998;28;20579;-82
2021/09/29 07:29:51;;;;;;;1.50;1.00;;;13.60;98.20;;;;;;5031726;28;20471;-79
2021/09/29 07:32:18;;;;;;;1.50;1.00;;;13.60;98.20;;;;;;5028922;28;20475;-81
2021/09/29 07:34:45;;;;;;;1.50;1.00;;;13.70;98.20;;;;;;5028490;28;20462;-80
2021/09/29 07:37:12;;;;;;;1.53;1.00;;;13.70;98.20;;;;;;5036124;28;20483;-81
2021/09/29 07:39:39;;;;;;;1.50;1.00;;;13.70;98.20;;;;;;5030215;28;20459;-80
2021/09/29 07:42:06;;;;;;;1.53;1.00;;;13.70;98.20;;;;;;5029471;28;20470;-81
2021/09/29 07:44:33;;;;;;;1.57;1.00;;;13.70;98.20;;;;;;5029702;28;21163;-78
2021/09/29 07:47:07;;;;;;;1.50;1.00;;;13.70;98.20;;;;;;5031960;28;20518;-79
2021/09/29 07:49:34;;;;;;;1.50;1.00;;;13.80;98.20;;;;;;5026842;28;20470;-79
2021/09/29 07:52:01;;;;;;;1.57;1.10;;;13.80;98.20;;;;;;5027704;28;20477;-79
2021/09/29 07:54:29;;;;;;;1.60;1.10;;;13.80;98.20;;;;;;5028878;28;20494;-79
2021/09/29 07:56:56;;;;;;;1.50;1.00;;;13.80;98.20;;;;;;5030291;28;20572;-78
2021/09/29 07:59:24;;;;;;;1.57;1.00;;;13.90;98.20;;;;;;5023525;28;20489;-79
2021/09/29 08:01:51;;;;;;;1.53;1.00;;;13.90;98.20;;;;;;5028765;28;20497;-81
2021/09/29 08:04:21;;;;;;;1.50;1.00;;;14.00;98.20;;;;;;5025902;28;20494;-79
2021/09/29 08:06:49;;;;;;;1.60;1.10;;;14.00;98.20;;;;;;5024598;28;20510;-77
2021/09/29 08:09:16;;;;;;;1.53;1.00;;;14.00;98.20;;;;;;5026941;28;20553;-78
2021/09/29 08:11:43;;;;;;;1.57;1.00;;;14.00;98.20;;;;;;5036238;28;20463;-78
2021/09/29 08:14:09;;;;;;;1.50;1.00;;;14.00;98.20;;;;;;5029141;28;20482;-78
2021/09/29 08:16:37;;;;;;;1.53;1.10;;;13.90;98.20;;;;;;5024968;28;20479;-79
2021/09/29 08:19:03;;;;;;;1.53;1.00;;;13.80;98.20;;;;;;5021272;28;20462;-78
2021/09/29 08:21:32;;;;;;;1.50;0.97;;;13.80;98.20;;;;;;5028531;28;20464;-77
2021/09/29 08:24:07;;;;;;;1.50;1.00;;;13.70;98.20;;;;;;5026997;28;20570;-79
2021/09/29 08:26:43;;;;;;;1.50;1.00;;;13.70;98.20;;;;;;5026725;28;20540;-78
2021/09/29 08:29:24;;;;;;;1.50;1.00;;;13.70;98.20;;;;;;5025524;28;20470;-77
2021/09/29 08:32:02;;;;;;;1.57;1.10;;;13.70;98.20;;;;;;5021455;28;20467;-78
2021/09/29 08:34:35;;;;;;;2.97;2.77;;;13.60;98.20;;;;;;5031332;28;20554;-79
2021/09/29 08:37:08;;;;;;;1.50;1.00;;;13.60;98.20;;;;;;5033764;28;20486;-79
2021/09/29 08:39:41;;;;;;;1.50;1.00;;;13.60;98.20;;;;;;5036966;28;20467;-78
2021/09/29 08:42:21;;;;;;;1.57;1.10;;;13.60;98.20;;;;;;5027893;28;20471;-79
2021/09/29 08:44:51;;;;;;;1.50;1.00;;;13.60;98.20;;;;;;5027932;28;20953;-78
2021/09/29 08:47:25;;;;;;;1.53;1.00;;;13.60;98.20;;;;;;5020756;28;20490;-79
2021/09/29 08:50:13;;;;;;;1.50;1.00;;;13.60;98.20;;;;;;5028143;28;20467;-80
2021/09/29 08:55:43;;;;;;;1.53;1.10;;;13.70;98.20;;;;;;5004859;28;20867;-78
2021/09/29 09:14:57;;;;;;;1.57;1.00;;;14.00;98.20;;;;;;5027223;28;20462;-79
2021/09/29 09:17:29;;;;;;;1.53;1.00;;;14.00;98.20;;;;;;5020568;28;20484;-81
2021/09/29 09:20:07;;;;;;;1.53;1.00;;;14.10;98.20;;;;;;5026962;28;20842;-80
2021/09/29 09:22:34;;;;;;;2.30;1.47;;;14.10;98.20;;;;;;5019570;28;20463;-81
2021/09/29 09:25:04;;;;;;;1.50;1.00;;;14.10;98.20;;;;;;5022812;28;20541;-78
2021/09/29 09:27:39;;;;;;;1.57;1.00;;;14.10;98.20;;;;;;5029784;28;20487;-79
2021/09/29 09:30:08;;;;;;;1.57;1.00;;;14.00;98.20;;;;;;5026716;28;20513;-81
2021/09/29 09:32:44;;;;;;;1.53;1.00;;;14.00;98.20;;;;;;5030031;28;20507;-80
2021/09/29 09:35:14;;;;;;;1.57;1.10;;;14.00;98.20;;;;;;5030915;28;20459;-82
2021/09/29 09:37:44;;;;;;;1.50;1.00;;;14.00;98.20;;;;;;5035431;28;21311;-82
2021/09/29 09:40:15;;;;;;;1.60;1.10;;;14.00;98.20;;;;;;5033084;28;20509;-80
2021/09/29 09:42:45;;;;;;;1.60;1.20;;;14.00;98.20;;;;;;5028360;28;20546;-82
2021/09/29 09:45:13;;;;;;;1.53;1.00;;;14.00;98.20;;;;;;5027863;28;20506;-81
2021/09/29 09:47:43;;;;;;;1.50;1.00;;;14.00;98.20;;;;;;5026523;28;20514;-79
2021/09/29 09:50:10;;;;;;;1.50;1.00;;;14.00;98.20;;;;;;5021579;28;20978;-82
2021/09/29 09:52:41;;;;;;;1.50;1.00;;;14.10;98.20;;;;;;5028265;28;21048;-81
2021/09/29 09:55:10;;;;;;;1.53;1.10;;;14.10;98.20;;;;;;5023845;28;20545;-82
2021/09/29 09:57:40;;;;;;;1.60;1.00;;;14.10;98.20;;;;;;5035185;28;20517;-82
2021/09/29 10:00:09;;;;;;;1.53;1.00;;;14.10;98.20;;;;;;5028243;28;20549;-81
2021/09/29 10:02:40;;;;;;;1.57;1.00;;;14.00;98.20;;;;;;5026552;28;20549;-82
2021/09/29 10:05:08;;;;;;;1.60;1.10;;;14.00;98.20;;;;;;5027272;28;20490;-81
2021/09/29 10:07:35;;;;;;;1.50;0.93;;;14.00;98.20;;;;;;5030074;28;20972;-82
2021/09/29 10:10:05;;;;;;;1.60;1.10;;;14.00;98.20;;;;;;5031049;28;20469;-82
2021/09/29 10:12:46;;;;;;;1.57;1.00;;;14.00;98.20;;;;;;5024977;28;20650;-81
2021/09/29 10:23:58;;;;;;;1.50;1.00;;;14.20;98.20;;;;;;5026917;28;20501;-82
2021/09/29 10:26:25;;;;;;;1.50;1.00;;;14.40;98.20;;;;;;5023703;28;20586;-78
2021/09/29 10:29:04;;;;;;;1.57;0.90;;;14.50;98.20;;;;;;5029408;28;20487;-79
2021/09/29 10:31:41;;;;;;;1.60;1.10;;;14.60;98.20;;;;;;5026333;28;21225;-79
2021/09/29 10:34:17;;;;;;;1.60;1.10;;;14.70;98.20;;;;;;5029397;28;20467;-78
2021/09/29 10:37:00;;;;;;;1.57;1.00;;;14.80;98.20;;;;;;5032147;28;21236;-80
2021/09/29 10:42:26;;;;;;;1.60;1.10;;;14.80;98.20;;;;;;5032880;28;20941;-81
2021/09/29 10:45:33;;;;;;;1.60;1.20;;;14.80;98.20;;;;;;5033609;28;20491;-80
2021/09/29 10:48:20;;;;;;;1.57;1.00;;;14.80;98.20;;;;;;5026061;28;20490;-78
2021/09/29 11:08:17;;;;;;;1.60;1.10;;;14.40;98.20;;;;;;4995905;28;20487;-79
2021/09/29 11:11:11;;;;;;;1.50;1.00;;;14.40;98.20;;;;;;5028329;28;20521;-78
2021/09/29 11:28:00;;;;;;;1.50;1.00;;;15.70;98.20;;;;;;5027449;28;20514;-81
2021/09/29 11:30:28;;;;;;;1.57;1.00;;;16.00;98.20;;;;;;5025196;28;20463;-77
2021/09/29 11:32:58;;;;;;;1.50;1.00;;;16.30;98.20;;;;;;5026011;28;20475;-77
2021/09/29 11:35:38;;;;;;;1.60;1.10;;;16.50;98.20;;;;;;5030440;28;20462;-79
2021/09/29 11:38:33;;;;;;;1.57;1.00;;;16.50;98.20;;;;;;5036643;28;20978;-78
2021/09/29 12:08:40;;;;;;;1.57;0.90;;;17.50;96.30;;;;;;5024647;28;20465;-78
2021/09/29 12:11:13;;;;;;;1.50;1.00;;;17.30;97.10;;;;;;5028079;28;20478;-78
2021/09/29 12:13:44;;;;;;;1.50;0.90;;;17.30;97.40;;;;;;5023316;28;20467;-78
2021/09/29 12:16:13;;;;;;;1.60;1.10;;;17.30;96.40;;;;;;5025986;28;20483;-79
2021/09/29 12:18:40;;;;;;;1.60;1.10;;;17.20;95.50;;;;;;5023381;28;20470;-79
2021/09/29 12:21:07;;;;;;;1.50;0.90;;;17.00;95.40;;;;;;5029819;28;20478;-78
2021/09/29 12:23:34;;;;;;;1.57;1.00;;;17.00;96.70;;;;;;5030525;28;20467;-78
2021/09/29 12:26:24;;;;;;;1.53;0.90;;;17.10;97.00;;;;;;5024667;28;20495;-79
2021/09/29 12:29:10;;;;;;;1.50;0.90;;;17.10;96.50;;;;;;5027138;28;20475;-78
2021/09/29 12:32:02;;;;;;;1.50;1.00;;;17.20;95.90;;;;;;5025955;28;20521;-77
2021/09/29 12:34:32;;;;;;;1.50;0.90;;;17.30;96.30;;;;;;5023467;28;20467;-79
2021/09/29 12:37:09;;;;;;;1.50;0.90;;;17.60;93.80;;;;;;5026014;28;20930;-80
2021/09/29 12:39:37;;;;;;;1.50;1.00;;;17.80;93.50;;;;;;5029731;28;20874;-77
2021/09/29 12:42:07;;;;;;;1.53;0.90;;;18.00;91.80;;;;;;5026341;28;21217;-77
2021/09/29 12:44:34;;;;;;;1.53;0.93;;;18.10;90.80;;;;;;5024893;28;20464;-78
2021/09/29 12:47:09;;;;;;;1.50;0.90;;;18.10;90.60;;;;;;5022625;28;20487;-79
2021/09/29 12:49:35;;;;;;;1.57;0.97;;;18.30;91.90;;;;;;5026710;28;20521;-79
2021/09/29 12:52:10;;;;;;;1.50;0.90;;;18.40;91.70;;;;;;5026415;28;20467;-77
2021/09/29 12:54:39;;;;;;;1.53;1.00;;;18.50;90.20;;;;;;5022752;28;20467;-77
2021/09/29 12:57:07;;;;;;;1.50;0.90;;;18.50;89.60;;;;;;5030709;28;20704;-78
2021/09/29 12:59:34;;;;;;;1.57;1.00;;;18.40;89.20;;;;;;5021557;28;20472;-75
2021/09/29 13:02:01;;;;;;;1.50;1.00;;;17.60;85.20;;;;;;5020401;28;20474;-76
2021/09/29 13:04:28;;;;;;;1.50;0.90;;;16.80;89.60;;;;;;5024860;28;21109;-78
2021/09/29 13:06:54;;;;;;;1.50;0.90;;;16.10;92.80;;;;;;5031032;28;20559;-78
2021/09/29 13:09:21;;;;;;;1.50;0.90;;;15.50;95.40;;;;;;5030122;28;21176;-81
2021/09/29 13:11:48;;;;;;;1.50;0.90;;;14.90;97.50;;;;;;5028326;28;20785;-79
2021/09/29 13:14:17;;;;;;;1.57;1.00;;;14.50;97.60;;;;;;5028288;28;20497;-82
2021/09/29 13:16:44;;;;;;;1.50;1.00;;;14.00;98.20;;;;;;5026010;28;20897;-78
2021/09/29 13:19:13;;;;;;;1.60;1.27;;;13.80;98.20;;;;;;5027514;28;20475;-78
2021/09/29 13:21:48;;;;;;;1.50;1.00;;;13.70;98.20;;;;;;5027192;28;20566;-81
2021/09/29 13:24:18;;;;;;;1.50;1.00;;;13.40;98.20;;;;;;5030771;28;20472;-81
2021/09/29 13:36:33;;;;;;;1.60;1.10;;;13.50;98.20;;;;;;5025911;28;20946;-82
2021/09/29 13:38:18;;;;;;;1.50;1.00;;;13.70;98.20;;;;;;5030146;28;20482;-83
2021/09/29 13:40:45;;;;;;;1.53;1.00;;;13.90;98.20;;;;;;5026000;28;20474;-82
2021/09/29 13:43:12;;;;;;;1.53;1.00;;;14.00;98.20;;;;;;5026512;28;20474;-82
2021/09/29 13:45:40;;;;;;;1.53;1.00;;;14.10;98.20;;;;;;5029555;28;20872;-83
2021/09/29 13:48:07;;;;;;;1.53;1.00;;;14.30;98.20;;;;;;5025681;28;20491;-83
2021/09/29 13:50:33;;;;;;;1.53;1.00;;;14.50;98.20;;;;;;5027641;28;20558;-82
2021/09/29 13:53:11;;;;;;;1.57;1.00;;;14.80;98.20;;;;;;5026123;28;20985;-84
2021/09/29 13:55:38;;;;;;;1.57;1.00;;;15.10;98.20;;;;;;5026792;28;20485;-83
2021/09/29 13:58:09;;;;;;;1.53;1.00;;;15.40;98.20;;;;;;5024041;28;20483;-82
2021/09/29 14:00:45;;;;;;;1.50;0.90;;;15.60;98.20;;;;;;5026803;28;20986;-81
2021/09/29 14:03:37;;;;;;;1.50;0.90;;;15.80;98.20;;;;;;5024741;28;20731;-83
2021/09/29 14:30:49;;;;;;;1.50;0.90;;;17.00;95.10;;;;;;5023257;28;20543;-82
2021/09/29 14:33:22;;;;;;;1.50;0.90;;;17.00;95.00;;;;;;5027581;28;20949;-81
2021/09/29 14:35:50;;;;;;;1.50;0.90;;;17.00;95.90;;;;;;5025119;28;20803;-81
2021/09/29 14:38:17;;;;;;;1.50;0.90;;;17.00;93.80;;;;;;5026463;28;20463;-80
2021/09/29 14:40:49;;;;;;;1.50;1.00;;;16.90;94.90;;;;;;5033145;28;20502;-81
2021/09/29 14:43:16;;;;;;;1.50;0.90;;;16.70;95.00;;;;;;5021040;28;20703;-82
2021/09/29 14:45:42;;;;;;;1.50;0.97;;;16.50;95.20;;;;;;5023891;28;20495;-80
2021/09/29 14:48:09;;;;;;;1.50;0.90;;;16.40;95.50;;;;;;5026877;28;20487;-81
2021/09/29 14:50:36;;;;;;;1.50;0.90;;;16.30;96.70;;;;;;5024688;28;21034;-81
2021/09/29 14:53:05;;;;;;;1.50;1.00;;;16.10;96.40;;;;;;5028622;28;20471;-76
2021/09/29 14:55:33;;;;;;;1.50;0.90;;;16.00;97.50;;;;;;5028509;28;20464;-80
2021/09/29 14:58:02;;;;;;;1.53;1.00;;;15.80;96.90;;;;;;5024764;28;20501;-77
2021/09/29 15:00:33;;;;;;;1.50;1.00;;;15.80;97.50;;;;;;5025514;28;20505;-79
2021/09/29 15:03:11;;;;;;;1.50;1.00;;;15.70;98.20;;;;;;5027865;28;20471;-80